Time;durP1;ratioP1;P1;durP2;ratioP2;P2;SDS_P1;SDS_P2;PMS_P1;PMS_P2;Temp;Humidity;BMP_temperature;BMP_pressure;BME280_temperature;BME280_humidity;BME280_pressure;Samples;Min_cycle;Max_cycle;Signal;HPM_P1;HPM_P2
2022/09/02 00:00:11;;;;;;;7.03;5.60;;;28.10;99.90;;;;;;5039122;28;20216;-93
2022/09/02 00:02:45;;;;;;;7.17;5.50;;;27.60;99.90;;;;;;5021928;28;20220;-93
2022/09/02 00:05:18;;;;;;;7.23;5.20;;;27.50;99.90;;;;;;5041492;28;20291;-95
2022/09/02 00:07:50;;;;;;;8.67;5.53;;;27.40;99.90;;;;;;5038862;28;20686;-96
2022/09/02 00:10:23;;;;;;;6.83;5.70;;;27.50;99.90;;;;;;5021001;28;20233;-92
2022/09/02 00:12:55;;;;;;;30.00;5.90;;;27.40;99.90;;;;;;5020103;28;20279;-93
2022/09/02 00:15:27;;;;;;;5.97;4.90;;;27.10;99.90;;;;;;5021803;28;20228;-94
2022/09/02 00:18:01;;;;;;;6.10;5.37;;;27.40;99.90;;;;;;5017480;28;20297;-93
2022/09/02 00:20:37;;;;;;;9.07;5.97;;;27.40;99.90;;;;;;5020635;28;20233;-93
2022/09/02 00:23:08;;;;;;;8.37;5.23;;;27.20;99.90;;;;;;5019171;28;20228;-93
2022/09/02 00:25:40;;;;;;;6.77;5.80;;;27.00;99.90;;;;;;5017537;28;20217;-95
2022/09/02 00:28:13;;;;;;;7.87;5.47;;;27.00;99.90;;;;;;5004925;28;20210;-93
2022/09/02 00:30:46;;;;;;;6.63;5.50;;;27.40;99.90;;;;;;5016937;28;20205;-93
2022/09/02 00:33:19;;;;;;;9.30;5.17;;;27.40;99.90;;;;;;5016470;28;20272;-93
2022/09/02 00:35:52;;;;;;;6.60;5.67;;;27.30;99.90;;;;;;5023307;28;20232;-93
2022/09/02 00:38:24;;;;;;;6.53;5.77;;;27.30;99.90;;;;;;5038012;28;20296;-94
2022/09/02 00:40:54;;;;;;;6.57;5.90;;;27.10;99.90;;;;;;5036321;28;20229;-93
2022/09/02 00:43:28;;;;;;;6.77;6.17;;;27.00;99.90;;;;;;5035693;28;20216;-94
2022/09/02 00:45:59;;;;;;;14.20;6.97;;;27.00;99.90;;;;;;5039563;28;20259;-93
2022/09/02 00:48:34;;;;;;;7.87;7.07;;;27.00;99.90;;;;;;5037373;28;20378;-93
2022/09/02 00:51:10;;;;;;;7.40;6.67;;;27.10;99.90;;;;;;5038576;28;20217;-93
2022/09/02 00:53:45;;;;;;;12.47;6.77;;;26.90;99.90;;;;;;5038118;28;20728;-93
2022/09/02 00:56:21;;;;;;;44.70;8.47;;;27.10;99.90;;;;;;5040895;28;20237;-93
2022/09/02 00:58:54;;;;;;;7.13;6.20;;;27.00;99.90;;;;;;5041791;28;20196;-94
2022/09/02 01:01:26;;;;;;;11.33;7.37;;;27.10;99.90;;;;;;5038022;28;20311;-93
2022/09/02 01:03:59;;;;;;;8.60;6.60;;;27.10;99.90;;;;;;5038227;28;20216;-93
2022/09/02 01:06:33;;;;;;;10.30;6.50;;;27.00;99.90;;;;;;5038797;28;20215;-93
2022/09/02 01:09:10;;;;;;;72.97;10.10;;;26.90;99.90;;;;;;5039873;28;20240;-91
2022/09/02 01:11:46;;;;;;;10.43;7.30;;;26.80;99.90;;;;;;5038795;28;20551;-94
2022/09/02 01:14:20;;;;;;;8.47;7.13;;;26.70;99.90;;;;;;5042553;28;20295;-93
2022/09/02 01:16:56;;;;;;;7.23;6.53;;;26.60;99.90;;;;;;5041474;28;20213;-93
2022/09/02 01:19:35;;;;;;;25.50;8.37;;;26.70;99.90;;;;;;5055783;28;20222;-93
2022/09/02 01:22:17;;;;;;;11.57;7.20;;;26.70;99.90;;;;;;5054954;28;20223;-93
2022/09/02 01:24:51;;;;;;;213.63;16.43;;;26.80;99.90;;;;;;5099629;22;20228;-95
2022/09/02 01:27:33;;;;;;;20.30;7.70;;;26.90;99.90;;;;;;5056174;28;20197;-94
2022/09/02 01:32:58;;;;;;;8.90;6.93;;;26.30;99.90;;;;;;5059562;28;20193;-93
2022/09/02 01:41:26;;;;;;;8.87;7.70;;;25.50;99.90;;;;;;5076683;28;20246;-93
2022/09/02 01:43:58;;;;;;;11.53;7.43;;;25.30;99.90;;;;;;5075308;28;20313;-93
2022/09/02 01:46:30;;;;;;;8.80;7.93;;;25.20;99.90;;;;;;5047898;28;20231;-93
2022/09/02 01:49:01;;;;;;;10.07;7.70;;;25.00;99.90;;;;;;5069632;28;20294;-94
2022/09/02 01:51:34;;;;;;;8.33;7.47;;;24.90;99.90;;;;;;5074333;28;20220;-93
2022/09/02 01:54:10;;;;;;;9.93;7.70;;;24.80;99.90;;;;;;5073459;28;20220;-93
2022/09/02 01:56:44;;;;;;;9.80;8.37;;;24.70;99.90;;;;;;5064513;28;20270;-92
2022/09/02 01:59:16;;;;;;;10.53;8.37;;;24.60;99.90;;;;;;5062095;28;20215;-93
2022/09/02 02:01:48;;;;;;;10.27;8.10;;;24.50;99.90;;;;;;5062037;28;20263;-93
2022/09/02 02:04:21;;;;;;;8.80;7.93;;;24.40;99.90;;;;;;5061598;28;20212;-94
2022/09/02 02:06:54;;;;;;;8.00;7.17;;;24.30;99.90;;;;;;5062897;28;20302;-93
2022/09/02 02:09:37;;;;;;;12.43;8.67;;;24.30;99.90;;;;;;5067988;28;20224;-94
2022/09/02 02:12:22;;;;;;;10.50;8.77;;;24.20;99.90;;;;;;5072978;28;20196;-93
2022/09/02 02:14:53;;;;;;;11.70;9.00;;;24.00;99.90;;;;;;5061775;28;20610;-94
2022/09/02 02:20:23;;;;;;;11.13;9.83;;;23.80;99.90;;;;;;5066568;28;20215;-94
2022/09/02 02:22:54;;;;;;;12.70;10.70;;;23.60;99.90;;;;;;5061714;28;20278;-94
2022/09/02 02:31:01;;;;;;;11.83;9.93;;;23.20;99.90;;;;;;5095646;22;20242;-94
2022/09/02 02:33:34;;;;;;;15.20;9.43;;;23.10;99.90;;;;;;5072481;28;20216;-93
2022/09/02 02:36:08;;;;;;;10.83;9.47;;;23.00;99.90;;;;;;5056286;28;20272;-93
2022/09/02 02:38:40;;;;;;;11.57;9.43;;;22.80;99.90;;;;;;5057666;28;20299;-93
2022/09/02 02:41:13;;;;;;;11.40;9.77;;;22.70;99.90;;;;;;5072210;28;20228;-93
2022/09/02 02:43:45;;;;;;;10.80;9.50;;;22.70;99.90;;;;;;5055960;28;20262;-92
2022/09/02 02:49:16;;;;;;;18.33;8.43;;;22.50;99.90;;;;;;5055327;28;20265;-94
2022/09/02 02:51:49;;;;;;;47.80;9.40;;;22.40;99.90;;;;;;5036958;28;20200;-93
2022/09/02 02:54:20;;;;;;;37.30;9.03;;;22.40;99.90;;;;;;5059223;28;20228;-94
2022/09/02 03:02:33;;;;;;;15.07;7.60;;;22.20;99.90;;;;;;5062165;28;20240;-94
2022/09/02 03:07:53;;;;;;;14.37;7.60;;;22.00;99.90;;;;;;5067048;28;20257;-94
2022/09/02 03:10:25;;;;;;;10.50;7.40;;;21.90;99.90;;;;;;5068555;28;20208;-94
2022/09/02 03:12:59;;;;;;;9.50;7.47;;;21.70;99.90;;;;;;5065970;28;20257;-94
2022/09/02 03:18:34;;;;;;;8.40;6.77;;;21.50;99.90;;;;;;5074026;28;20196;-94
2022/09/02 03:21:11;;;;;;;7.40;6.70;;;21.50;99.90;;;;;;5072095;28;20203;-93
2022/09/02 03:23:47;;;;;;;8.20;7.10;;;21.40;99.90;;;;;;5066789;28;20294;-93
2022/09/02 03:26:27;;;;;;;6.97;6.27;;;21.30;99.90;;;;;;5068037;28;20204;-94
2022/09/02 03:29:00;;;;;;;11.90;7.37;;;21.20;99.90;;;;;;5060587;28;20269;-94
2022/09/02 03:31:36;;;;;;;11.93;9.43;;;21.10;99.90;;;;;;5059590;28;20215;-94
2022/09/02 03:34:09;;;;;;;9.63;8.50;;;21.10;99.90;;;;;;5059926;28;20212;-94
2022/09/02 03:36:43;;;;;;;8.83;7.10;;;21.00;99.90;;;;;;5067092;28;20216;-94
2022/09/02 03:39:19;;;;;;;8.13;6.87;;;20.90;99.90;;;;;;5066426;28;20201;-94
2022/09/02 03:41:53;;;;;;;8.43;7.63;;;20.90;99.90;;;;;;5065409;28;20254;-93
2022/09/02 03:44:27;;;;;;;9.70;7.43;;;20.80;99.90;;;;;;5064424;28;20212;-93
2022/09/02 03:46:58;;;;;;;12.77;7.03;;;20.70;99.90;;;;;;5063814;28;20215;-94
2022/09/02 03:49:29;;;;;;;12.03;7.20;;;20.70;99.90;;;;;;5065891;28;20184;-94
2022/09/02 03:57:45;;;;;;;10.93;7.63;;;20.50;99.90;;;;;;5064550;28;20204;-94
2022/09/02 04:00:45;;;;;;;9.07;7.07;;;20.50;99.90;;;;;;5066777;28;20193;-93
2022/09/02 04:03:19;;;;;;;9.17;7.17;;;20.40;99.90;;;;;;5059938;28;20240;-93
2022/09/02 04:05:51;;;;;;;7.80;6.67;;;20.40;99.90;;;;;;5058988;28;20266;-94
2022/09/02 04:08:22;;;;;;;8.77;6.93;;;20.30;99.90;;;;;;5058216;28;20706;-93
2022/09/02 04:10:55;;;;;;;11.43;7.27;;;20.30;99.90;;;;;;5057308;28;20579;-93
2022/09/02 04:13:26;;;;;;;10.53;7.17;;;20.20;99.90;;;;;;5057988;28;20251;-93
2022/09/02 04:15:57;;;;;;;7.63;6.93;;;20.20;99.90;;;;;;5059231;28;20285;-93
2022/09/02 04:18:33;;;;;;;9.67;7.40;;;20.10;99.90;;;;;;5058692;28;20196;-93
2022/09/02 04:21:04;;;;;;;10.97;7.53;;;20.10;99.90;;;;;;5058403;28;20231;-93
2022/09/02 04:23:36;;;;;;;8.30;6.87;;;20.00;99.90;;;;;;5058509;28;20258;-93
2022/09/02 04:26:09;;;;;;;9.00;7.00;;;19.90;99.90;;;;;;5061342;28;20208;-93
2022/09/02 04:28:41;;;;;;;8.10;6.03;;;19.80;99.90;;;;;;5059044;28;20626;-94
2022/09/02 04:31:14;;;;;;;9.07;6.53;;;19.80;99.90;;;;;;5059237;28;20239;-93
2022/09/02 04:33:47;;;;;;;10.40;6.67;;;19.70;99.90;;;;;;5055617;28;20295;-94
2022/09/02 04:36:21;;;;;;;7.80;6.00;;;19.70;99.90;;;;;;5039707;28;20224;-92
2022/09/02 04:38:54;;;;;;;7.30;5.80;;;19.60;99.90;;;;;;5064701;28;20219;-93
2022/09/02 04:41:29;;;;;;;7.40;6.03;;;19.50;99.90;;;;;;5061703;28;20234;-95
2022/09/02 04:44:00;;;;;;;6.77;6.00;;;19.50;99.90;;;;;;5062500;28;20295;-94
2022/09/02 04:46:32;;;;;;;6.07;5.53;;;19.40;99.90;;;;;;5058547;28;20645;-94
2022/09/02 04:49:07;;;;;;;6.60;5.80;;;19.30;99.90;;;;;;5060294;28;20293;-94
2022/09/02 04:51:38;;;;;;;6.90;6.23;;;19.20;99.90;;;;;;5040838;28;20235;-93
2022/09/02 04:54:09;;;;;;;6.83;6.13;;;19.20;99.90;;;;;;5058623;28;20262;-93
2022/09/02 04:56:41;;;;;;;5.67;5.10;;;19.10;99.90;;;;;;5056342;28;20227;-92
2022/09/02 04:59:11;;;;;;;5.83;5.23;;;19.10;99.90;;;;;;5056839;28;20208;-93
2022/09/02 05:01:43;;;;;;;6.20;5.53;;;19.10;99.90;;;;;;5057872;28;20196;-93
2022/09/02 05:04:16;;;;;;;6.77;5.60;;;19.10;99.90;;;;;;5056008;28;20239;-93
2022/09/02 05:06:48;;;;;;;8.27;5.40;;;19.00;99.90;;;;;;5059832;28;20742;-92
2022/09/02 05:09:19;;;;;;;6.40;5.80;;;19.00;99.90;;;;;;5059023;28;20239;-92
2022/09/02 05:11:51;;;;;;;6.97;5.77;;;18.90;99.90;;;;;;5058835;28;20212;-92
2022/09/02 05:14:22;;;;;;;10.23;6.13;;;18.80;99.90;;;;;;5059146;28;20238;-93
2022/09/02 05:16:54;;;;;;;8.30;5.50;;;18.80;99.90;;;;;;5059480;28;20236;-92
2022/09/02 05:19:28;;;;;;;6.33;5.70;;;18.70;99.90;;;;;;5059022;28;20208;-92
2022/09/02 05:22:00;;;;;;;8.53;6.43;;;18.70;99.90;;;;;;5059018;28;20238;-92
2022/09/02 05:24:32;;;;;;;6.40;5.73;;;18.70;99.90;;;;;;5059731;28;20209;-92
2022/09/02 05:27:03;;;;;;;6.30;5.70;;;18.70;99.90;;;;;;5058990;28;20200;-92
2022/09/02 05:29:34;;;;;;;8.00;5.63;;;18.60;99.90;;;;;;5042237;28;20665;-92
2022/09/02 05:32:06;;;;;;;6.60;5.30;;;18.60;99.90;;;;;;5059039;28;20224;-92
2022/09/02 05:34:40;;;;;;;7.33;5.57;;;18.60;99.90;;;;;;5059193;28;20220;-92
2022/09/02 05:37:11;;;;;;;7.27;5.97;;;18.60;99.90;;;;;;5059117;28;20228;-93
2022/09/02 05:39:42;;;;;;;6.67;5.50;;;18.50;99.90;;;;;;5058966;28;20243;-91
2022/09/02 05:42:15;;;;;;;6.10;5.50;;;18.50;99.90;;;;;;5058080;28;20239;-92
2022/09/02 05:44:46;;;;;;;7.63;6.33;;;18.50;99.90;;;;;;5058872;28;20261;-92
2022/09/02 05:47:18;;;;;;;7.57;6.57;;;18.50;99.90;;;;;;5059332;28;20208;-93
2022/09/02 05:49:51;;;;;;;9.53;6.60;;;18.50;99.90;;;;;;5059169;28;20208;-92
2022/09/02 05:52:23;;;;;;;7.03;6.10;;;18.40;99.90;;;;;;5057899;28;20212;-92
2022/09/02 05:54:54;;;;;;;9.57;6.43;;;18.30;99.90;;;;;;5058937;28;20224;-92
2022/09/02 05:57:26;;;;;;;8.73;6.30;;;18.40;99.90;;;;;;5063292;28;20212;-93
2022/09/02 05:59:57;;;;;;;7.03;6.37;;;18.30;99.90;;;;;;5060936;28;20286;-92
2022/09/02 06:02:28;;;;;;;7.40;6.10;;;18.30;99.90;;;;;;5057786;28;20219;-92
2022/09/02 06:05:02;;;;;;;6.87;6.17;;;18.20;99.90;;;;;;5060923;28;20212;-93
2022/09/02 06:07:37;;;;;;;6.47;5.80;;;18.20;99.90;;;;;;5058594;28;20272;-92
2022/09/02 06:10:09;;;;;;;8.77;6.20;;;18.20;99.90;;;;;;5061411;28;20211;-92
2022/09/02 06:12:40;;;;;;;7.47;6.47;;;18.20;99.90;;;;;;5060320;28;20278;-92
2022/09/02 06:15:20;;;;;;;6.63;6.10;;;18.10;99.90;;;;;;5107977;22;20290;-92
2022/09/02 06:17:51;;;;;;;6.33;5.73;;;18.10;99.90;;;;;;5041373;28;20677;-93
2022/09/02 06:20:24;;;;;;;7.83;6.27;;;18.10;99.90;;;;;;5042402;28;20239;-92
2022/09/02 06:22:55;;;;;;;6.17;5.57;;;18.10;99.90;;;;;;5020055;28;20215;-93
2022/09/02 06:25:26;;;;;;;6.80;5.83;;;18.10;99.90;;;;;;5038354;28;20213;-93
2022/09/02 06:27:57;;;;;;;6.43;5.80;;;18.00;99.90;;;;;;5038275;28;20267;-93
2022/09/02 06:30:36;;;;;;;6.60;5.97;;;18.00;99.90;;;;;;5038097;28;20209;-93
2022/09/02 06:33:08;;;;;;;8.43;6.03;;;18.00;99.90;;;;;;5037275;28;20213;-93
2022/09/02 06:35:43;;;;;;;7.00;6.10;;;18.00;99.90;;;;;;5040510;28;20239;-92
2022/09/02 06:38:25;;;;;;;6.97;5.93;;;17.90;99.90;;;;;;5045103;28;20260;-93
2022/09/02 06:40:57;;;;;;;7.60;5.80;;;17.90;99.90;;;;;;5046706;28;20293;-93
2022/09/02 06:43:29;;;;;;;6.80;6.10;;;17.80;99.90;;;;;;5041564;28;20263;-93
2022/09/02 06:46:16;;;;;;;9.23;5.53;;;17.80;99.90;;;;;;5035107;28;20232;-94
2022/09/02 06:48:49;;;;;;;10.13;6.30;;;17.70;99.90;;;;;;5037796;28;20266;-92
2022/09/02 06:51:24;;;;;;;7.70;6.27;;;17.70;99.90;;;;;;5036538;28;20213;-93
2022/09/02 06:54:07;;;;;;;7.67;6.37;;;17.60;99.90;;;;;;5045048;28;20729;-93
2022/09/02 06:56:43;;;;;;;7.83;6.20;;;17.60;99.90;;;;;;5046287;28;20209;-93
2022/09/02 06:59:19;;;;;;;6.47;5.80;;;17.60;99.90;;;;;;5037871;28;20220;-92
2022/09/02 07:01:51;;;;;;;5.37;4.87;;;17.60;99.90;;;;;;5039432;28;20549;-93
2022/09/02 07:07:12;;;;;;;6.10;5.50;;;17.60;99.90;;;;;;5037418;28;20205;-93
2022/09/02 07:09:43;;;;;;;7.33;5.67;;;17.50;99.90;;;;;;5037086;28;20680;-93
2022/09/02 07:12:16;;;;;;;6.30;5.47;;;17.50;99.90;;;;;;5036620;28;20204;-93
2022/09/02 07:14:47;;;;;;;7.63;6.07;;;17.50;99.90;;;;;;5031591;28;20217;-93
2022/09/02 07:17:22;;;;;;;7.97;5.87;;;17.50;99.90;;;;;;5017547;28;20209;-93
2022/09/02 07:19:54;;;;;;;6.40;5.73;;;17.40;99.90;;;;;;5020494;28;20236;-93
2022/09/02 07:22:29;;;;;;;8.10;5.60;;;17.40;99.90;;;;;;5018605;28;20210;-93
2022/09/02 07:25:00;;;;;;;6.73;5.80;;;17.30;99.90;;;;;;5016101;28;20236;-93
2022/09/02 07:27:32;;;;;;;10.33;5.87;;;17.20;99.90;;;;;;5019524;28;20658;-94
2022/09/02 07:30:05;;;;;;;7.60;5.10;;;17.20;99.90;;;;;;5035548;28;20235;-93
2022/09/02 07:32:36;;;;;;;5.60;5.07;;;17.20;99.90;;;;;;5036587;28;20264;-93
2022/09/02 07:35:09;;;;;;;5.57;5.03;;;17.20;99.90;;;;;;5038677;28;20213;-93
2022/09/02 07:37:42;;;;;;;6.30;5.47;;;17.20;99.90;;;;;;5036944;28;20189;-93
2022/09/02 07:40:14;;;;;;;5.97;5.37;;;17.10;99.90;;;;;;5041138;28;20666;-93
2022/09/02 07:42:45;;;;;;;6.33;4.97;;;17.10;99.90;;;;;;5036313;28;20238;-93
2022/09/02 07:45:17;;;;;;;5.77;5.27;;;17.00;99.90;;;;;;5036921;28;20647;-93
2022/09/02 07:47:49;;;;;;;6.77;5.53;;;17.00;99.90;;;;;;5037113;28;20258;-92
2022/09/02 07:50:21;;;;;;;5.37;4.80;;;16.90;99.90;;;;;;5036300;28;20208;-93
2022/09/02 07:52:55;;;;;;;6.50;5.80;;;16.80;99.90;;;;;;5036055;28;20612;-93
2022/09/02 07:55:26;;;;;;;7.73;5.00;;;16.80;99.90;;;;;;5036928;28;20235;-93
2022/09/02 07:57:58;;;;;;;5.20;4.70;;;16.70;99.90;;;;;;5036619;28;20205;-93
2022/09/02 08:00:30;;;;;;;6.60;4.63;;;16.60;99.90;;;;;;5036365;28;20252;-92
2022/09/02 08:03:02;;;;;;;6.67;5.20;;;16.70;99.90;;;;;;5038747;28;20204;-93
2022/09/02 08:05:35;;;;;;;6.83;5.07;;;16.60;99.90;;;;;;5036278;28;20245;-92
2022/09/02 08:08:09;;;;;;;5.27;4.80;;;16.60;99.90;;;;;;5037140;28;20235;-91
2022/09/02 08:10:41;;;;;;;6.70;4.70;;;16.50;99.90;;;;;;5039007;28;20212;-91
2022/09/02 08:13:12;;;;;;;5.57;4.90;;;16.50;99.90;;;;;;5035693;28;20208;-93
2022/09/02 08:15:45;;;;;;;6.10;4.50;;;16.50;99.90;;;;;;5034687;28;20212;-92
2022/09/02 08:18:20;;;;;;;8.03;4.97;;;16.50;99.90;;;;;;5037044;28;20570;-93
2022/09/02 08:21:00;;;;;;;8.57;4.77;;;16.50;99.90;;;;;;5037240;28;20224;-92
2022/09/02 08:23:50;;;;;;;5.10;4.47;;;16.50;99.90;;;;;;5035099;28;20235;-93
2022/09/02 08:26:20;;;;;;;5.00;4.53;;;16.50;99.90;;;;;;5038379;28;20716;-92
2022/09/02 08:28:52;;;;;;;5.03;4.63;;;16.50;99.90;;;;;;5036527;28;20274;-93
2022/09/02 08:31:23;;;;;;;5.13;4.63;;;16.40;99.90;;;;;;5035950;28;20209;-95
2022/09/02 08:33:54;;;;;;;5.17;4.43;;;16.40;99.90;;;;;;5035885;28;20203;-93
2022/09/02 08:36:26;;;;;;;5.07;4.60;;;16.40;99.90;;;;;;5035629;28;20557;-93
2022/09/02 08:39:02;;;;;;;4.97;4.43;;;16.40;99.90;;;;;;5041008;28;20275;-92
2022/09/02 08:41:42;;;;;;;5.10;4.70;;;16.30;99.90;;;;;;5039662;28;20223;-91
2022/09/02 08:44:21;;;;;;;6.13;4.80;;;16.30;99.90;;;;;;5039868;28;20228;-93
2022/09/02 08:46:59;;;;;;;5.20;4.70;;;16.30;99.90;;;;;;5040257;28;20224;-93
2022/09/02 08:49:35;;;;;;;5.73;4.43;;;16.30;99.90;;;;;;5040153;28;20216;-93
2022/09/02 08:52:07;;;;;;;7.53;4.50;;;16.20;99.90;;;;;;5039850;28;20584;-93
2022/09/02 08:54:50;;;;;;;5.80;4.73;;;16.20;99.90;;;;;;5040035;28;20209;-93
2022/09/02 08:57:25;;;;;;;5.33;4.53;;;16.20;99.90;;;;;;5040097;28;20657;-92
2022/09/02 08:59:59;;;;;;;4.63;4.20;;;16.10;99.90;;;;;;5039722;28;20212;-92
2022/09/02 09:02:41;;;;;;;5.60;4.50;;;16.00;99.90;;;;;;5039137;28;20669;-92
2022/09/02 09:05:25;;;;;;;4.67;4.27;;;15.90;99.90;;;;;;5039293;28;20243;-93
2022/09/02 09:08:05;;;;;;;6.20;4.47;;;15.90;99.90;;;;;;5039648;28;20236;-92
2022/09/02 09:10:55;;;;;;;5.37;4.50;;;15.80;99.90;;;;;;5039617;28;20295;-92
2022/09/02 09:14:13;;;;;;;5.47;4.60;;;15.80;99.90;;;;;;5038804;28;20647;-93
2022/09/02 09:16:53;;;;;;;5.47;4.17;;;15.80;99.90;;;;;;4959436;29;20211;-92
2022/09/02 09:19:34;;;;;;;5.27;4.60;;;15.80;99.90;;;;;;4959760;29;20294;-93
2022/09/02 09:22:05;;;;;;;5.10;4.57;;;15.80;99.90;;;;;;4996968;28;20555;-93
2022/09/02 09:24:40;;;;;;;4.80;4.13;;;15.80;99.90;;;;;;5019496;28;20332;-93
2022/09/02 09:27:15;;;;;;;6.10;4.10;;;15.70;99.90;;;;;;5019579;28;20233;-92
2022/09/02 09:29:47;;;;;;;4.43;3.87;;;15.70;99.90;;;;;;5020581;28;20205;-93
2022/09/02 09:32:26;;;;;;;4.97;4.10;;;15.60;99.90;;;;;;5038019;28;20228;-92
2022/09/02 09:35:02;;;;;;;6.30;4.07;;;15.60;99.90;;;;;;5038922;28;20239;-92
2022/09/02 09:37:37;;;;;;;5.00;3.70;;;15.60;99.90;;;;;;5040715;28;20263;-93
2022/09/02 09:40:26;;;;;;;6.90;3.87;;;15.50;99.90;;;;;;5039225;28;20213;-92
2022/09/02 09:43:12;;;;;;;3.50;3.20;;;15.50;99.90;;;;;;5037743;28;20205;-93
2022/09/02 09:45:45;;;;;;;4.17;3.77;;;15.50;99.90;;;;;;5037567;28;20267;-93
2022/09/02 09:48:50;;;;;;;3.83;3.43;;;15.60;99.90;;;;;;5038698;28;20215;-92
2022/09/02 09:51:21;;;;;;;3.57;3.27;;;15.50;99.90;;;;;;5038428;28;20685;-92
2022/09/02 09:53:53;;;;;;;4.80;3.03;;;15.50;99.90;;;;;;5038352;28;20595;-92
2022/09/02 09:56:35;;;;;;;4.60;3.30;;;15.40;99.90;;;;;;5038948;28;20233;-92
2022/09/02 09:59:31;;;;;;;3.30;3.00;;;15.30;99.90;;;;;;5038483;28;20295;-93
2022/09/02 10:02:02;;;;;;;4.13;3.00;;;15.40;99.90;;;;;;5038040;28;20270;-93
2022/09/02 10:04:34;;;;;;;3.87;2.90;;;15.50;99.90;;;;;;5038239;28;20280;-93
2022/09/02 10:07:14;;;;;;;3.30;3.00;;;15.40;99.90;;;;;;5039116;28;20215;-93
2022/09/02 10:09:45;;;;;;;3.77;3.37;;;15.30;99.90;;;;;;5042308;28;20209;-92
2022/09/02 10:12:32;;;;;;;4.47;3.70;;;15.20;99.90;;;;;;5039109;28;20204;-93
2022/09/02 10:15:05;;;;;;;4.70;3.67;;;15.10;99.90;;;;;;5040671;28;20338;-93
2022/09/02 10:17:52;;;;;;;4.00;3.60;;;15.10;99.90;;;;;;5040492;28;20664;-93
2022/09/02 10:20:30;;;;;;;3.80;3.30;;;15.10;99.90;;;;;;5042837;28;20212;-92
2022/09/02 10:23:15;;;;;;;3.67;3.37;;;15.10;99.90;;;;;;5037703;28;20213;-93
2022/09/02 10:25:59;;;;;;;3.57;3.27;;;15.10;99.90;;;;;;5037922;28;20236;-93
2022/09/02 10:28:45;;;;;;;3.87;3.23;;;15.10;99.90;;;;;;5040324;28;20223;-92
2022/09/02 10:31:30;;;;;;;5.40;3.80;;;15.10;99.90;;;;;;5037826;28;20271;-92
2022/09/02 10:34:16;;;;;;;4.43;3.70;;;15.00;99.90;;;;;;5037552;28;20211;-92
2022/09/02 10:37:05;;;;;;;4.63;3.27;;;14.90;99.90;;;;;;5038070;28;20213;-92
2022/09/02 10:40:03;;;;;;;4.00;3.60;;;14.90;99.90;;;;;;5037501;28;20292;-92
2022/09/02 10:42:42;;;;;;;5.37;3.23;;;15.00;99.90;;;;;;5039233;28;20622;-92
2022/09/02 10:45:17;;;;;;;5.63;3.60;;;15.00;99.90;;;;;;5038085;28;20263;-92
2022/09/02 10:48:02;;;;;;;4.67;3.40;;;15.00;99.90;;;;;;5038492;28;20208;-92
2022/09/02 10:50:41;;;;;;;3.77;2.87;;;15.00;99.90;;;;;;5038670;28;20267;-92
2022/09/02 10:53:29;;;;;;;2.90;2.60;;;15.00;99.90;;;;;;5037748;28;20275;-92
2022/09/02 10:56:03;;;;;;;2.70;2.50;;;15.00;99.90;;;;;;5038557;28;20213;-93
2022/09/02 10:58:47;;;;;;;3.10;2.80;;;15.00;99.90;;;;;;5039422;28;20677;-92
2022/09/02 11:01:24;;;;;;;6.83;2.70;;;15.00;99.90;;;;;;5038869;28;20228;-92
2022/09/02 11:04:06;;;;;;;4.00;2.40;;;15.00;99.90;;;;;;5038477;28;20270;-93
2022/09/02 11:06:42;;;;;;;2.50;2.30;;;15.00;99.90;;;;;;5037978;28;20836;-92
2022/09/02 11:09:38;;;;;;;2.43;1.97;;;15.10;99.90;;;;;;5037791;28;20197;-93
2022/09/02 11:12:14;;;;;;;1.70;1.60;;;15.10;99.90;;;;;;5037503;28;20219;-93
2022/09/02 11:14:58;;;;;;;2.77;2.20;;;15.10;99.90;;;;;;5032742;28;20221;-91
2022/09/02 11:17:36;;;;;;;2.10;1.90;;;15.10;99.90;;;;;;5018250;28;20220;-92
2022/09/02 11:20:17;;;;;;;2.40;1.93;;;15.10;99.90;;;;;;5017243;28;20225;-92
2022/09/02 11:22:56;;;;;;;2.17;1.60;;;15.10;99.90;;;;;;5018113;28;20275;-92
2022/09/02 11:25:33;;;;;;;2.97;1.70;;;15.10;99.90;;;;;;5020836;28;20602;-92
2022/09/02 11:28:15;;;;;;;1.70;1.50;;;15.10;99.90;;;;;;5020655;28;20247;-92
2022/09/02 11:30:52;;;;;;;2.80;1.93;;;15.10;99.90;;;;;;5043275;28;20208;-93
2022/09/02 11:33:30;;;;;;;2.93;2.07;;;15.00;99.90;;;;;;5042537;28;20212;-92
2022/09/02 11:36:04;;;;;;;2.30;2.10;;;15.00;99.90;;;;;;5043077;28;20204;-93
2022/09/02 11:38:41;;;;;;;2.13;1.97;;;15.00;99.90;;;;;;5041153;28;20270;-92
2022/09/02 11:41:28;;;;;;;2.43;2.07;;;15.00;99.90;;;;;;5039409;28;20215;-93
2022/09/02 11:44:24;;;;;;;2.37;2.17;;;15.00;99.90;;;;;;5039650;28;20213;-92
2022/09/02 11:47:30;;;;;;;2.50;2.13;;;14.90;99.90;;;;;;5038359;28;20236;-92
2022/09/02 11:50:20;;;;;;;3.87;2.43;;;14.90;99.90;;;;;;5040606;28;20262;-93
2022/09/02 11:53:06;;;;;;;2.40;2.20;;;14.80;99.90;;;;;;5039699;28;20237;-93
2022/09/02 11:55:40;;;;;;;2.87;2.30;;;14.80;99.90;;;;;;5038204;28;20251;-92
2022/09/02 11:58:12;;;;;;;2.50;2.10;;;14.80;99.90;;;;;;5038276;28;20287;-93
2022/09/02 12:01:04;;;;;;;5.10;2.57;;;14.70;99.90;;;;;;5037394;28;20205;-93
2022/09/02 12:03:46;;;;;;;2.57;2.10;;;14.70;99.90;;;;;;5036628;28;20303;-92
2022/09/02 12:06:38;;;;;;;2.73;2.10;;;14.70;99.90;;;;;;5037053;28;20331;-92
2022/09/02 12:09:12;;;;;;;3.47;2.50;;;14.70;99.90;;;;;;5037449;28;20205;-93
2022/09/02 12:11:53;;;;;;;2.53;2.30;;;14.70;99.90;;;;;;5036826;28;20884;-92
2022/09/02 12:15:07;;;;;;;2.80;2.37;;;14.60;99.90;;;;;;5036998;28;20221;-92
2022/09/02 12:18:07;;;;;;;3.93;2.20;;;14.60;99.90;;;;;;5036988;28;20228;-93
2022/09/02 12:21:13;;;;;;;2.50;2.30;;;14.60;99.90;;;;;;5037484;28;20221;-92
2022/09/02 12:24:24;;;;;;;3.03;2.20;;;14.60;99.90;;;;;;5036593;28;20211;-92
2022/09/02 12:27:19;;;;;;;2.97;2.40;;;14.50;99.90;;;;;;5037455;28;20962;-93
2022/09/02 12:29:51;;;;;;;2.50;2.30;;;14.50;99.90;;;;;;5037532;28;20208;-92
2022/09/02 12:33:03;;;;;;;2.30;2.10;;;14.50;99.90;;;;;;5035527;28;20287;-92
2022/09/02 12:35:52;;;;;;;2.67;2.40;;;14.50;99.90;;;;;;5037324;28;20205;-92
2022/09/02 12:38:30;;;;;;;2.20;2.00;;;14.50;99.90;;;;;;5036590;28;20662;-93
2022/09/02 12:41:29;;;;;;;2.30;2.10;;;14.50;99.90;;;;;;5035597;28;20208;-92
2022/09/02 12:44:24;;;;;;;2.43;2.00;;;14.50;99.90;;;;;;5035430;28;20232;-93
2022/09/02 12:47:06;;;;;;;2.80;2.17;;;14.50;99.90;;;;;;5035685;28;20233;-92
2022/09/02 12:49:49;;;;;;;2.17;1.97;;;14.50;99.90;;;;;;5036677;28;20259;-93
2022/09/02 12:52:43;;;;;;;2.77;1.97;;;14.50;99.90;;;;;;5038980;28;20204;-93
2022/09/02 12:55:22;;;;;;;3.33;1.83;;;14.40;99.90;;;;;;5037002;28;20213;-93
2022/09/02 12:58:06;;;;;;;1.70;1.60;;;14.50;99.90;;;;;;5036581;28;20213;-94
2022/09/02 13:00:55;;;;;;;1.60;1.50;;;14.50;99.90;;;;;;5037143;28;20213;-94
2022/09/02 13:03:45;;;;;;;3.57;1.87;;;14.50;99.90;;;;;;5037121;28;20213;-91
2022/09/02 13:06:26;;;;;;;2.10;1.77;;;14.50;99.90;;;;;;5039466;28;20197;-92
2022/09/02 13:09:29;;;;;;;2.13;1.50;;;14.40;99.90;;;;;;5036331;28;20233;-92
2022/09/02 13:12:25;;;;;;;3.13;1.67;;;14.40;99.90;;;;;;4998477;28;20248;-92
2022/09/02 13:15:03;;;;;;;2.53;1.80;;;14.40;99.90;;;;;;5038360;28;20602;-92
2022/09/02 13:17:48;;;;;;;2.30;1.93;;;14.40;99.90;;;;;;5036239;28;20618;-91
2022/09/02 13:20:54;;;;;;;3.23;2.10;;;14.40;99.90;;;;;;5036781;28;20247;-92
2022/09/02 13:27:35;;;;;;;3.60;2.30;;;14.40;99.90;;;;;;5039038;28;20286;-92
2022/09/02 13:30:31;;;;;;;4.53;2.70;;;14.40;99.90;;;;;;5040220;28;20212;-92
2022/09/02 13:33:07;;;;;;;4.50;2.50;;;14.30;99.90;;;;;;5039704;28;20209;-92
2022/09/02 13:35:41;;;;;;;3.77;2.33;;;14.20;99.90;;;;;;5039816;28;20217;-92
2022/09/02 13:38:13;;;;;;;4.10;2.60;;;14.20;99.90;;;;;;5039494;28;20206;-92
2022/09/02 13:40:48;;;;;;;2.33;1.97;;;14.20;99.90;;;;;;5040290;28;20672;-92
2022/09/02 13:43:21;;;;;;;2.70;2.30;;;14.20;99.90;;;;;;5039216;28;20208;-92
2022/09/02 13:45:56;;;;;;;2.70;2.50;;;14.20;99.90;;;;;;5039603;28;20213;-92
2022/09/02 13:48:30;;;;;;;2.73;2.13;;;14.20;99.90;;;;;;5039275;28;20232;-92
2022/09/02 13:51:09;;;;;;;3.40;2.47;;;14.20;99.90;;;;;;5039563;28;20216;-92
2022/09/02 13:53:43;;;;;;;4.40;2.60;;;14.20;99.90;;;;;;5039335;28;20213;-91
2022/09/02 13:56:34;;;;;;;3.37;2.90;;;14.20;99.90;;;;;;5038226;28;20696;-92
2022/09/02 13:59:05;;;;;;;3.43;2.80;;;14.30;99.90;;;;;;5041943;28;20232;-92
2022/09/02 14:01:40;;;;;;;3.70;3.40;;;14.30;99.90;;;;;;5041576;28;20235;-92
2022/09/02 14:04:15;;;;;;;4.23;3.83;;;14.30;99.90;;;;;;5040445;28;20224;-92
2022/09/02 14:06:48;;;;;;;4.53;4.13;;;14.40;99.90;;;;;;5039980;28;20232;-91
2022/09/02 14:09:23;;;;;;;4.10;3.70;;;14.40;99.90;;;;;;5040739;28;20228;-93
2022/09/02 14:11:54;;;;;;;4.80;4.27;;;14.50;99.90;;;;;;5040502;28;20208;-92
2022/09/02 14:14:27;;;;;;;5.73;5.13;;;14.50;99.90;;;;;;5040197;28;20224;-91
2022/09/02 14:17:20;;;;;;;8.10;5.20;;;14.60;99.90;;;;;;5039756;28;20717;-92
2022/09/02 14:19:52;;;;;;;18.33;5.07;;;14.60;99.90;;;;;;5040077;28;20267;-92